sensor_id;sensor_type;location;lat;lon;timestamp;P1;durP1;ratioP1;P2;durP2;ratioP2
34783;SDS011;20998;51.388;7.032;2023-06-04T00:02:23;7.87;;;1.60;;
34783;SDS011;20998;51.388;7.032;2023-06-04T00:04:49;1.43;;;1.30;;
34783;SDS011;20998;51.388;7.032;2023-06-04T00:07:15;2.20;;;1.40;;
34783;SDS011;20998;51.388;7.032;2023-06-04T00:09:41;4.63;;;1.80;;
34783;SDS011;20998;51.388;7.032;2023-06-04T00:12:07;1.30;;;1.10;;
34783;SDS011;20998;51.388;7.032;2023-06-04T00:14:33;1.30;;;1.07;;
34783;SDS011;20998;51.388;7.032;2023-06-04T00:16:59;3.57;;;1.30;;
34783;SDS011;20998;51.388;7.032;2023-06-04T00:19:25;1.73;;;1.20;;
34783;SDS011;20998;51.388;7.032;2023-06-04T00:21:51;1.63;;;1.30;;
34783;SDS011;20998;51.388;7.032;2023-06-04T00:24:17;2.03;;;1.40;;
34783;SDS011;20998;51.388;7.032;2023-06-04T00:26:43;2.23;;;1.50;;
34783;SDS011;20998;51.388;7.032;2023-06-04T00:29:09;2.87;;;1.17;;
34783;SDS011;20998;51.388;7.032;2023-06-04T00:31:35;2.10;;;1.30;;
34783;SDS011;20998;51.388;7.032;2023-06-04T00:34:02;1.83;;;1.20;;
34783;SDS011;20998;51.388;7.032;2023-06-04T00:36:28;2.07;;;1.23;;
34783;SDS011;20998;51.388;7.032;2023-06-04T00:38:54;2.33;;;1.67;;
34783;SDS011;20998;51.388;7.032;2023-06-04T00:41:20;2.77;;;1.30;;
34783;SDS011;20998;51.388;7.032;2023-06-04T00:43:46;5.80;;;1.40;;
34783;SDS011;20998;51.388;7.032;2023-06-04T00:46:20;2.27;;;1.50;;
34783;SDS011;20998;51.388;7.032;2023-06-04T00:48:46;2.43;;;1.43;;
34783;SDS011;20998;51.388;7.032;2023-06-04T00:51:12;1.97;;;1.30;;
34783;SDS011;20998;51.388;7.032;2023-06-04T00:53:38;2.50;;;1.70;;
34783;SDS011;20998;51.388;7.032;2023-06-04T00:56:04;8.10;;;1.77;;
34783;SDS011;20998;51.388;7.032;2023-06-04T00:58:30;3.17;;;1.20;;
34783;SDS011;20998;51.388;7.032;2023-06-04T01:00:58;1.60;;;1.20;;
34783;SDS011;20998;51.388;7.032;2023-06-04T01:03:29;6.27;;;1.43;;
34783;SDS011;20998;51.388;7.032;2023-06-04T01:06:00;2.47;;;1.60;;
34783;SDS011;20998;51.388;7.032;2023-06-04T01:08:36;2.07;;;1.30;;
34783;SDS011;20998;51.388;7.032;2023-06-04T01:11:02;2.63;;;1.20;;
34783;SDS011;20998;51.388;7.032;2023-06-04T01:13:28;2.77;;;1.37;;
34783;SDS011;20998;51.388;7.032;2023-06-04T01:15:54;3.97;;;1.87;;
34783;SDS011;20998;51.388;7.032;2023-06-04T01:18:24;2.50;;;1.30;;
34783;SDS011;20998;51.388;7.032;2023-06-04T01:21:02;3.20;;;1.60;;
34783;SDS011;20998;51.388;7.032;2023-06-04T01:23:45;7.73;;;1.70;;
34783;SDS011;20998;51.388;7.032;2023-06-04T01:26:14;2.57;;;1.40;;
34783;SDS011;20998;51.388;7.032;2023-06-04T01:28:40;1.37;;;1.27;;
34783;SDS011;20998;51.388;7.032;2023-06-04T01:31:07;6.17;;;1.23;;
34783;SDS011;20998;51.388;7.032;2023-06-04T01:33:33;3.33;;;1.33;;
34783;SDS011;20998;51.388;7.032;2023-06-04T01:36:00;2.03;;;1.33;;
34783;SDS011;20998;51.388;7.032;2023-06-04T01:38:26;2.60;;;1.37;;
34783;SDS011;20998;51.388;7.032;2023-06-04T01:40:52;2.27;;;1.20;;
34783;SDS011;20998;51.388;7.032;2023-06-04T01:43:21;4.13;;;1.50;;
34783;SDS011;20998;51.388;7.032;2023-06-04T01:45:47;2.87;;;1.80;;
34783;SDS011;20998;51.388;7.032;2023-06-04T01:48:13;2.57;;;1.40;;
34783;SDS011;20998;51.388;7.032;2023-06-04T01:50:39;2.90;;;1.23;;
34783;SDS011;20998;51.388;7.032;2023-06-04T01:53:05;3.33;;;1.50;;
34783;SDS011;20998;51.388;7.032;2023-06-04T01:55:31;1.43;;;1.20;;
34783;SDS011;20998;51.388;7.032;2023-06-04T01:57:58;1.93;;;1.50;;
34783;SDS011;20998;51.388;7.032;2023-06-04T02:00:25;3.47;;;1.33;;
34783;SDS011;20998;51.388;7.032;2023-06-04T02:02:51;1.97;;;1.20;;
34783;SDS011;20998;51.388;7.032;2023-06-04T02:05:18;1.80;;;1.30;;
34783;SDS011;20998;51.388;7.032;2023-06-04T02:07:44;1.67;;;1.20;;
34783;SDS011;20998;51.388;7.032;2023-06-04T02:10:13;2.77;;;1.50;;
34783;SDS011;20998;51.388;7.032;2023-06-04T02:12:40;1.53;;;1.30;;
34783;SDS011;20998;51.388;7.032;2023-06-04T02:15:18;1.50;;;1.20;;
34783;SDS011;20998;51.388;7.032;2023-06-04T02:17:44;1.97;;;1.17;;
34783;SDS011;20998;51.388;7.032;2023-06-04T02:20:11;1.70;;;1.17;;
34783;SDS011;20998;51.388;7.032;2023-06-04T02:22:37;3.67;;;1.73;;
34783;SDS011;20998;51.388;7.032;2023-06-04T02:25:03;2.27;;;1.40;;
34783;SDS011;20998;51.388;7.032;2023-06-04T02:27:30;1.67;;;1.17;;
34783;SDS011;20998;51.388;7.032;2023-06-04T02:29:55;2.63;;;1.40;;
34783;SDS011;20998;51.388;7.032;2023-06-04T02:32:21;1.97;;;1.27;;
34783;SDS011;20998;51.388;7.032;2023-06-04T02:34:47;1.60;;;1.10;;
34783;SDS011;20998;51.388;7.032;2023-06-04T02:37:14;6.53;;;1.40;;
34783;SDS011;20998;51.388;7.032;2023-06-04T02:39:40;2.10;;;1.13;;
34783;SDS011;20998;51.388;7.032;2023-06-04T02:42:06;2.13;;;1.20;;
34783;SDS011;20998;51.388;7.032;2023-06-04T02:44:32;5.30;;;1.50;;
34783;SDS011;20998;51.388;7.032;2023-06-04T02:46:58;2.63;;;1.17;;
34783;SDS011;20998;51.388;7.032;2023-06-04T02:49:24;2.03;;;1.33;;
34783;SDS011;20998;51.388;7.032;2023-06-04T02:51:50;1.67;;;1.20;;
34783;SDS011;20998;51.388;7.032;2023-06-04T02:54:16;3.77;;;1.33;;
34783;SDS011;20998;51.388;7.032;2023-06-04T02:56:42;2.97;;;1.30;;
34783;SDS011;20998;51.388;7.032;2023-06-04T02:59:09;7.23;;;1.30;;
34783;SDS011;20998;51.388;7.032;2023-06-04T03:01:35;1.73;;;1.30;;
34783;SDS011;20998;51.388;7.032;2023-06-04T03:04:01;2.30;;;1.13;;
34783;SDS011;20998;51.388;7.032;2023-06-04T03:06:30;1.60;;;1.40;;
34783;SDS011;20998;51.388;7.032;2023-06-04T03:08:57;9.73;;;1.30;;
34783;SDS011;20998;51.388;7.032;2023-06-04T03:11:23;1.20;;;1.10;;
34783;SDS011;20998;51.388;7.032;2023-06-04T03:13:49;1.30;;;1.10;;
34783;SDS011;20998;51.388;7.032;2023-06-04T03:16:17;1.87;;;1.37;;
34783;SDS011;20998;51.388;7.032;2023-06-04T03:18:44;2.87;;;1.60;;
34783;SDS011;20998;51.388;7.032;2023-06-04T03:21:10;1.83;;;1.47;;
34783;SDS011;20998;51.388;7.032;2023-06-04T03:23:36;1.87;;;1.13;;
34783;SDS011;20998;51.388;7.032;2023-06-04T03:26:02;2.87;;;0.97;;
34783;SDS011;20998;51.388;7.032;2023-06-04T03:28:29;1.97;;;1.53;;
34783;SDS011;20998;51.388;7.032;2023-06-04T03:30:56;1.57;;;1.23;;
34783;SDS011;20998;51.388;7.032;2023-06-04T03:33:22;2.13;;;1.20;;
34783;SDS011;20998;51.388;7.032;2023-06-04T03:35:48;1.37;;;1.23;;
34783;SDS011;20998;51.388;7.032;2023-06-04T03:38:14;1.63;;;1.30;;
34783;SDS011;20998;51.388;7.032;2023-06-04T03:40:40;3.77;;;1.43;;
34783;SDS011;20998;51.388;7.032;2023-06-04T03:43:06;3.80;;;1.60;;
34783;SDS011;20998;51.388;7.032;2023-06-04T03:45:32;2.67;;;1.63;;
34783;SDS011;20998;51.388;7.032;2023-06-04T03:47:58;3.33;;;1.57;;
34783;SDS011;20998;51.388;7.032;2023-06-04T03:50:24;9.53;;;1.83;;
34783;SDS011;20998;51.388;7.032;2023-06-04T03:52:50;2.50;;;1.30;;
34783;SDS011;20998;51.388;7.032;2023-06-04T03:55:16;2.67;;;1.37;;
34783;SDS011;20998;51.388;7.032;2023-06-04T03:57:42;1.90;;;1.50;;
34783;SDS011;20998;51.388;7.032;2023-06-04T04:00:09;1.20;;;1.10;;
34783;SDS011;20998;51.388;7.032;2023-06-04T04:02:38;1.73;;;1.30;;
34783;SDS011;20998;51.388;7.032;2023-06-04T04:05:04;2.30;;;1.30;;
34783;SDS011;20998;51.388;7.032;2023-06-04T04:07:30;2.03;;;1.57;;
34783;SDS011;20998;51.388;7.032;2023-06-04T04:09:55;3.37;;;1.50;;
34783;SDS011;20998;51.388;7.032;2023-06-04T04:12:21;4.93;;;1.70;;
34783;SDS011;20998;51.388;7.032;2023-06-04T04:14:47;2.07;;;1.30;;
34783;SDS011;20998;51.388;7.032;2023-06-04T04:17:14;2.77;;;1.43;;
34783;SDS011;20998;51.388;7.032;2023-06-04T04:19:40;1.77;;;1.40;;
34783;SDS011;20998;51.388;7.032;2023-06-04T04:22:06;4.10;;;1.40;;
34783;SDS011;20998;51.388;7.032;2023-06-04T04:24:31;1.97;;;1.47;;
34783;SDS011;20998;51.388;7.032;2023-06-04T04:27:00;8.23;;;1.40;;
34783;SDS011;20998;51.388;7.032;2023-06-04T04:29:28;2.87;;;1.57;;
34783;SDS011;20998;51.388;7.032;2023-06-04T04:31:57;1.87;;;1.40;;
34783;SDS011;20998;51.388;7.032;2023-06-04T04:34:26;8.43;;;1.80;;
34783;SDS011;20998;51.388;7.032;2023-06-04T04:36:51;2.67;;;1.67;;
34783;SDS011;20998;51.388;7.032;2023-06-04T04:39:22;2.80;;;1.47;;
34783;SDS011;20998;51.388;7.032;2023-06-04T04:41:49;4.47;;;1.33;;
34783;SDS011;20998;51.388;7.032;2023-06-04T04:44:15;1.83;;;1.43;;
34783;SDS011;20998;51.388;7.032;2023-06-04T04:46:41;2.23;;;1.30;;
34783;SDS011;20998;51.388;7.032;2023-06-04T04:49:07;2.77;;;1.50;;
34783;SDS011;20998;51.388;7.032;2023-06-04T04:51:33;3.47;;;1.83;;
34783;SDS011;20998;51.388;7.032;2023-06-04T04:53:59;2.13;;;1.47;;
34783;SDS011;20998;51.388;7.032;2023-06-04T04:56:25;1.77;;;1.53;;
34783;SDS011;20998;51.388;7.032;2023-06-04T04:58:51;4.53;;;1.60;;
34783;SDS011;20998;51.388;7.032;2023-06-04T05:01:17;3.83;;;1.40;;
34783;SDS011;20998;51.388;7.032;2023-06-04T05:03:43;2.57;;;1.47;;
34783;SDS011;20998;51.388;7.032;2023-06-04T05:06:10;3.90;;;1.80;;
34783;SDS011;20998;51.388;7.032;2023-06-04T05:08:35;3.53;;;1.97;;
34783;SDS011;20998;51.388;7.032;2023-06-04T05:11:01;2.40;;;1.73;;
34783;SDS011;20998;51.388;7.032;2023-06-04T05:13:27;3.30;;;1.40;;
34783;SDS011;20998;51.388;7.032;2023-06-04T05:15:53;3.13;;;1.77;;
34783;SDS011;20998;51.388;7.032;2023-06-04T05:18:19;2.70;;;1.80;;
34783;SDS011;20998;51.388;7.032;2023-06-04T05:20:48;3.13;;;1.60;;
34783;SDS011;20998;51.388;7.032;2023-06-04T05:23:14;4.23;;;1.90;;
34783;SDS011;20998;51.388;7.032;2023-06-04T05:25:40;3.50;;;1.67;;
34783;SDS011;20998;51.388;7.032;2023-06-04T05:28:06;2.97;;;1.83;;
34783;SDS011;20998;51.388;7.032;2023-06-04T05:30:32;3.37;;;1.93;;
34783;SDS011;20998;51.388;7.032;2023-06-04T05:32:59;3.20;;;1.80;;
34783;SDS011;20998;51.388;7.032;2023-06-04T05:35:25;3.30;;;1.90;;
34783;SDS011;20998;51.388;7.032;2023-06-04T05:37:51;8.03;;;2.17;;
34783;SDS011;20998;51.388;7.032;2023-06-04T05:40:18;5.67;;;1.90;;
34783;SDS011;20998;51.388;7.032;2023-06-04T05:42:44;2.67;;;2.20;;
34783;SDS011;20998;51.388;7.032;2023-06-04T05:45:10;3.63;;;2.33;;
34783;SDS011;20998;51.388;7.032;2023-06-04T05:47:36;11.07;;;1.90;;
34783;SDS011;20998;51.388;7.032;2023-06-04T05:50:02;2.70;;;1.90;;
34783;SDS011;20998;51.388;7.032;2023-06-04T05:52:28;3.60;;;2.37;;
34783;SDS011;20998;51.388;7.032;2023-06-04T05:54:54;1.97;;;1.60;;
34783;SDS011;20998;51.388;7.032;2023-06-04T05:57:20;3.60;;;2.43;;
34783;SDS011;20998;51.388;7.032;2023-06-04T05:59:46;12.87;;;2.27;;
34783;SDS011;20998;51.388;7.032;2023-06-04T06:02:12;3.83;;;2.50;;
34783;SDS011;20998;51.388;7.032;2023-06-04T06:04:38;4.93;;;2.40;;
34783;SDS011;20998;51.388;7.032;2023-06-04T06:07:04;3.43;;;2.47;;
34783;SDS011;20998;51.388;7.032;2023-06-04T06:09:30;2.73;;;1.93;;
34783;SDS011;20998;51.388;7.032;2023-06-04T06:11:56;3.23;;;2.40;;
34783;SDS011;20998;51.388;7.032;2023-06-04T06:14:23;4.23;;;2.23;;
34783;SDS011;20998;51.388;7.032;2023-06-04T06:16:49;9.20;;;3.13;;
34783;SDS011;20998;51.388;7.032;2023-06-04T06:19:15;2.47;;;1.57;;
34783;SDS011;20998;51.388;7.032;2023-06-04T06:21:42;2.70;;;1.90;;
34783;SDS011;20998;51.388;7.032;2023-06-04T06:24:08;4.33;;;2.17;;
34783;SDS011;20998;51.388;7.032;2023-06-04T06:26:34;2.00;;;1.80;;
34783;SDS011;20998;51.388;7.032;2023-06-04T06:29:00;3.07;;;2.00;;
34783;SDS011;20998;51.388;7.032;2023-06-04T06:31:26;2.13;;;1.60;;
34783;SDS011;20998;51.388;7.032;2023-06-04T06:33:52;2.53;;;1.83;;
34783;SDS011;20998;51.388;7.032;2023-06-04T06:36:18;4.20;;;1.80;;
34783;SDS011;20998;51.388;7.032;2023-06-04T06:38:45;3.33;;;1.87;;
34783;SDS011;20998;51.388;7.032;2023-06-04T06:41:11;3.27;;;1.83;;
34783;SDS011;20998;51.388;7.032;2023-06-04T06:43:37;4.77;;;2.13;;
34783;SDS011;20998;51.388;7.032;2023-06-04T06:46:03;2.90;;;1.97;;
34783;SDS011;20998;51.388;7.032;2023-06-04T06:48:29;2.23;;;1.80;;
34783;SDS011;20998;51.388;7.032;2023-06-04T06:50:55;3.13;;;1.90;;
34783;SDS011;20998;51.388;7.032;2023-06-04T06:53:21;4.60;;;2.20;;
34783;SDS011;20998;51.388;7.032;2023-06-04T06:55:47;8.63;;;2.50;;
34783;SDS011;20998;51.388;7.032;2023-06-04T06:58:13;4.57;;;1.60;;
34783;SDS011;20998;51.388;7.032;2023-06-04T07:00:39;4.53;;;1.93;;
34783;SDS011;20998;51.388;7.032;2023-06-04T07:03:05;2.20;;;1.83;;
34783;SDS011;20998;51.388;7.032;2023-06-04T07:05:33;3.97;;;1.77;;
34783;SDS011;20998;51.388;7.032;2023-06-04T07:07:59;3.20;;;2.07;;
34783;SDS011;20998;51.388;7.032;2023-06-04T07:10:26;1.80;;;1.40;;
34783;SDS011;20998;51.388;7.032;2023-06-04T07:12:52;2.30;;;1.57;;
34783;SDS011;20998;51.388;7.032;2023-06-04T07:15:18;2.53;;;1.50;;
34783;SDS011;20998;51.388;7.032;2023-06-04T07:17:45;2.93;;;1.67;;
34783;SDS011;20998;51.388;7.032;2023-06-04T07:20:11;2.13;;;1.47;;
34783;SDS011;20998;51.388;7.032;2023-06-04T07:22:37;3.33;;;1.90;;
34783;SDS011;20998;51.388;7.032;2023-06-04T07:25:03;10.53;;;1.67;;
34783;SDS011;20998;51.388;7.032;2023-06-04T07:27:29;6.90;;;1.97;;
34783;SDS011;20998;51.388;7.032;2023-06-04T07:29:55;3.80;;;1.50;;
34783;SDS011;20998;51.388;7.032;2023-06-04T07:32:22;3.37;;;1.73;;
34783;SDS011;20998;51.388;7.032;2023-06-04T07:34:48;2.10;;;1.30;;
34783;SDS011;20998;51.388;7.032;2023-06-04T07:37:14;2.33;;;1.73;;
34783;SDS011;20998;51.388;7.032;2023-06-04T07:39:40;4.10;;;2.17;;
34783;SDS011;20998;51.388;7.032;2023-06-04T07:42:06;8.43;;;1.83;;
34783;SDS011;20998;51.388;7.032;2023-06-04T07:44:32;2.60;;;1.70;;
34783;SDS011;20998;51.388;7.032;2023-06-04T07:46:58;3.17;;;1.63;;
34783;SDS011;20998;51.388;7.032;2023-06-04T07:49:24;2.53;;;1.60;;
34783;SDS011;20998;51.388;7.032;2023-06-04T07:51:50;7.90;;;1.50;;
34783;SDS011;20998;51.388;7.032;2023-06-04T07:54:16;3.77;;;2.33;;
34783;SDS011;20998;51.388;7.032;2023-06-04T07:56:42;2.50;;;1.60;;
34783;SDS011;20998;51.388;7.032;2023-06-04T07:59:08;5.70;;;2.20;;
34783;SDS011;20998;51.388;7.032;2023-06-04T08:01:34;2.83;;;1.83;;
34783;SDS011;20998;51.388;7.032;2023-06-04T08:03:59;5.30;;;1.90;;
34783;SDS011;20998;51.388;7.032;2023-06-04T08:06:25;2.50;;;1.77;;
34783;SDS011;20998;51.388;7.032;2023-06-04T08:08:52;2.90;;;1.83;;
34783;SDS011;20998;51.388;7.032;2023-06-04T08:11:18;3.63;;;1.87;;
34783;SDS011;20998;51.388;7.032;2023-06-04T08:13:44;2.57;;;1.70;;
34783;SDS011;20998;51.388;7.032;2023-06-04T08:16:10;3.70;;;1.90;;
34783;SDS011;20998;51.388;7.032;2023-06-04T08:18:39;5.60;;;2.37;;
34783;SDS011;20998;51.388;7.032;2023-06-04T08:21:08;3.03;;;1.90;;
34783;SDS011;20998;51.388;7.032;2023-06-04T08:23:35;3.60;;;2.40;;
34783;SDS011;20998;51.388;7.032;2023-06-04T08:26:01;4.17;;;2.20;;
34783;SDS011;20998;51.388;7.032;2023-06-04T08:28:27;2.58;;;1.90;;
34783;SDS011;20998;51.388;7.032;2023-06-04T08:30:53;3.88;;;1.88;;
34783;SDS011;20998;51.388;7.032;2023-06-04T08:33:19;5.68;;;1.70;;
34783;SDS011;20998;51.388;7.032;2023-06-04T08:35:45;5.07;;;2.13;;
34783;SDS011;20998;51.388;7.032;2023-06-04T08:38:11;2.65;;;1.90;;
34783;SDS011;20998;51.388;7.032;2023-06-04T08:40:37;4.63;;;2.20;;
34783;SDS011;20998;51.388;7.032;2023-06-04T08:43:03;2.63;;;2.33;;
34783;SDS011;20998;51.388;7.032;2023-06-04T08:45:29;8.32;;;2.20;;
34783;SDS011;20998;51.388;7.032;2023-06-04T08:47:57;4.70;;;2.47;;
34783;SDS011;20998;51.388;7.032;2023-06-04T08:50:24;7.32;;;2.65;;
34783;SDS011;20998;51.388;7.032;2023-06-04T08:52:53;2.78;;;2.13;;
34783;SDS011;20998;51.388;7.032;2023-06-04T08:55:19;3.28;;;2.42;;
34783;SDS011;20998;51.388;7.032;2023-06-04T08:57:46;5.82;;;2.58;;
34783;SDS011;20998;51.388;7.032;2023-06-04T09:00:14;7.50;;;2.33;;
34783;SDS011;20998;51.388;7.032;2023-06-04T09:02:40;5.32;;;2.38;;
34783;SDS011;20998;51.388;7.032;2023-06-04T09:05:07;2.58;;;2.30;;
34783;SDS011;20998;51.388;7.032;2023-06-04T09:07:38;3.67;;;2.42;;
34783;SDS011;20998;51.388;7.032;2023-06-04T09:10:08;11.05;;;2.50;;
34783;SDS011;20998;51.388;7.032;2023-06-04T09:12:37;5.13;;;2.47;;
34783;SDS011;20998;51.388;7.032;2023-06-04T09:15:08;8.32;;;2.08;;
34783;SDS011;20998;51.388;7.032;2023-06-04T09:17:34;4.22;;;2.72;;
34783;SDS011;20998;51.388;7.032;2023-06-04T09:20:00;4.82;;;2.30;;
34783;SDS011;20998;51.388;7.032;2023-06-04T09:22:32;3.33;;;2.35;;
34783;SDS011;20998;51.388;7.032;2023-06-04T09:24:58;4.43;;;2.10;;
34783;SDS011;20998;51.388;7.032;2023-06-04T09:27:24;9.60;;;2.47;;
34783;SDS011;20998;51.388;7.032;2023-06-04T09:29:53;2.53;;;1.98;;
34783;SDS011;20998;51.388;7.032;2023-06-04T09:32:26;5.30;;;2.25;;
34783;SDS011;20998;51.388;7.032;2023-06-04T09:34:53;6.05;;;2.08;;
34783;SDS011;20998;51.388;7.032;2023-06-04T09:37:19;2.78;;;1.85;;
34783;SDS011;20998;51.388;7.032;2023-06-04T09:39:52;2.70;;;1.90;;
34783;SDS011;20998;51.388;7.032;2023-06-04T09:42:20;4.78;;;2.10;;
34783;SDS011;20998;51.388;7.032;2023-06-04T09:44:46;3.05;;;1.67;;
34783;SDS011;20998;51.388;7.032;2023-06-04T09:47:12;5.07;;;2.05;;
34783;SDS011;20998;51.388;7.032;2023-06-04T09:49:45;8.15;;;1.83;;
34783;SDS011;20998;51.388;7.032;2023-06-04T09:52:11;7.10;;;1.98;;
34783;SDS011;20998;51.388;7.032;2023-06-04T09:54:38;4.57;;;1.75;;
34783;SDS011;20998;51.388;7.032;2023-06-04T09:57:14;12.35;;;2.20;;
34783;SDS011;20998;51.388;7.032;2023-06-04T09:59:41;2.78;;;2.15;;
34783;SDS011;20998;51.388;7.032;2023-06-04T10:02:13;1.67;;;1.48;;
34783;SDS011;20998;51.388;7.032;2023-06-04T10:04:48;9.40;;;1.90;;
34783;SDS011;20998;51.388;7.032;2023-06-04T10:07:25;2.80;;;1.63;;
34783;SDS011;20998;51.388;7.032;2023-06-04T10:09:51;1.92;;;1.77;;
34783;SDS011;20998;51.388;7.032;2023-06-04T10:12:20;3.10;;;1.83;;
34783;SDS011;20998;51.388;7.032;2023-06-04T10:14:52;5.18;;;1.70;;
34783;SDS011;20998;51.388;7.032;2023-06-04T10:17:21;2.55;;;1.60;;
34783;SDS011;20998;51.388;7.032;2023-06-04T10:19:48;3.28;;;1.77;;
34783;SDS011;20998;51.388;7.032;2023-06-04T10:22:19;1.38;;;1.20;;
34783;SDS011;20998;51.388;7.032;2023-06-04T10:24:45;2.85;;;1.52;;
34783;SDS011;20998;51.388;7.032;2023-06-04T10:27:12;3.08;;;1.70;;
34783;SDS011;20998;51.388;7.032;2023-06-04T10:29:38;2.65;;;1.60;;
34783;SDS011;20998;51.388;7.032;2023-06-04T10:32:04;7.03;;;1.75;;
34783;SDS011;20998;51.388;7.032;2023-06-04T10:34:31;4.55;;;2.15;;
34783;SDS011;20998;51.388;7.032;2023-06-04T10:36:57;3.20;;;1.70;;
34783;SDS011;20998;51.388;7.032;2023-06-04T10:39:27;2.35;;;1.92;;
34783;SDS011;20998;51.388;7.032;2023-06-04T10:41:57;3.50;;;2.30;;
34783;SDS011;20998;51.388;7.032;2023-06-04T10:44:27;6.00;;;1.98;;
34783;SDS011;20998;51.388;7.032;2023-06-04T10:46:53;3.40;;;2.15;;
34783;SDS011;20998;51.388;7.032;2023-06-04T10:49:26;2.50;;;1.70;;
34783;SDS011;20998;51.388;7.032;2023-06-04T10:51:53;2.53;;;1.70;;
34783;SDS011;20998;51.388;7.032;2023-06-04T10:54:24;2.85;;;2.20;;
34783;SDS011;20998;51.388;7.032;2023-06-04T10:56:51;6.95;;;2.00;;
34783;SDS011;20998;51.388;7.032;2023-06-04T10:59:18;3.50;;;1.90;;
34783;SDS011;20998;51.388;7.032;2023-06-04T11:01:44;2.00;;;1.63;;
34783;SDS011;20998;51.388;7.032;2023-06-04T11:04:23;4.32;;;2.08;;
34783;SDS011;20998;51.388;7.032;2023-06-04T11:07:06;3.00;;;1.85;;
34783;SDS011;20998;51.388;7.032;2023-06-04T11:09:35;2.83;;;1.90;;
34783;SDS011;20998;51.388;7.032;2023-06-04T11:12:04;4.18;;;1.90;;
34783;SDS011;20998;51.388;7.032;2023-06-04T11:14:30;4.22;;;2.40;;
34783;SDS011;20998;51.388;7.032;2023-06-04T11:16:56;3.92;;;1.70;;
34783;SDS011;20998;51.388;7.032;2023-06-04T11:19:22;4.15;;;1.98;;
34783;SDS011;20998;51.388;7.032;2023-06-04T11:21:48;4.03;;;1.77;;
34783;SDS011;20998;51.388;7.032;2023-06-04T11:24:16;4.50;;;2.10;;
34783;SDS011;20998;51.388;7.032;2023-06-04T11:26:41;2.33;;;1.90;;
34783;SDS011;20998;51.388;7.032;2023-06-04T11:29:08;2.17;;;1.70;;
34783;SDS011;20998;51.388;7.032;2023-06-04T11:31:46;1.60;;;1.48;;
34783;SDS011;20998;51.388;7.032;2023-06-04T11:37:08;2.15;;;1.50;;
34783;SDS011;20998;51.388;7.032;2023-06-04T11:39:34;2.65;;;1.80;;
34783;SDS011;20998;51.388;7.032;2023-06-04T11:42:06;7.20;;;1.92;;
34783;SDS011;20998;51.388;7.032;2023-06-04T11:44:32;2.30;;;1.83;;
34783;SDS011;20998;51.388;7.032;2023-06-04T11:46:58;3.33;;;1.83;;
34783;SDS011;20998;51.388;7.032;2023-06-04T11:49:24;4.97;;;1.65;;
34783;SDS011;20998;51.388;7.032;2023-06-04T11:51:53;2.90;;;1.73;;
34783;SDS011;20998;51.388;7.032;2023-06-04T11:54:20;3.63;;;1.85;;
34783;SDS011;20998;51.388;7.032;2023-06-04T11:56:46;4.22;;;2.00;;
34783;SDS011;20998;51.388;7.032;2023-06-04T11:59:14;4.43;;;1.80;;
34783;SDS011;20998;51.388;7.032;2023-06-04T12:01:41;3.78;;;2.00;;
34783;SDS011;20998;51.388;7.032;2023-06-04T12:04:14;3.03;;;1.77;;
34783;SDS011;20998;51.388;7.032;2023-06-04T12:06:54;2.38;;;1.60;;
34783;SDS011;20998;51.388;7.032;2023-06-04T12:09:25;2.28;;;1.40;;
34783;SDS011;20998;51.388;7.032;2023-06-04T12:11:59;2.53;;;1.58;;
34783;SDS011;20998;51.388;7.032;2023-06-04T12:14:28;4.10;;;1.70;;
34783;SDS011;20998;51.388;7.032;2023-06-04T12:17:15;5.82;;;1.98;;
34783;SDS011;20998;51.388;7.032;2023-06-04T12:19:47;3.13;;;2.00;;
34783;SDS011;20998;51.388;7.032;2023-06-04T12:22:13;5.90;;;1.67;;
34783;SDS011;20998;51.388;7.032;2023-06-04T12:24:49;4.05;;;1.98;;
34783;SDS011;20998;51.388;7.032;2023-06-04T12:27:27;4.68;;;2.03;;
34783;SDS011;20998;51.388;7.032;2023-06-04T12:30:00;1.75;;;1.65;;
34783;SDS011;20998;51.388;7.032;2023-06-04T12:32:28;4.93;;;2.10;;
34783;SDS011;20998;51.388;7.032;2023-06-04T12:34:54;2.78;;;2.17;;
34783;SDS011;20998;51.388;7.032;2023-06-04T12:37:23;5.35;;;2.30;;
34783;SDS011;20998;51.388;7.032;2023-06-04T12:39:52;5.15;;;1.73;;
34783;SDS011;20998;51.388;7.032;2023-06-04T12:42:18;3.20;;;1.58;;
34783;SDS011;20998;51.388;7.032;2023-06-04T12:44:45;2.85;;;1.92;;
34783;SDS011;20998;51.388;7.032;2023-06-04T12:47:11;3.42;;;1.80;;
34783;SDS011;20998;51.388;7.032;2023-06-04T12:49:37;3.42;;;1.73;;
34783;SDS011;20998;51.388;7.032;2023-06-04T12:52:03;2.70;;;1.80;;
34783;SDS011;20998;51.388;7.032;2023-06-04T12:54:29;2.90;;;1.55;;
34783;SDS011;20998;51.388;7.032;2023-06-04T12:56:55;3.38;;;1.63;;
34783;SDS011;20998;51.388;7.032;2023-06-04T12:59:25;1.40;;;1.27;;
34783;SDS011;20998;51.388;7.032;2023-06-04T13:01:52;2.90;;;1.55;;
34783;SDS011;20998;51.388;7.032;2023-06-04T13:04:18;2.35;;;1.70;;
34783;SDS011;20998;51.388;7.032;2023-06-04T13:06:44;2.63;;;1.95;;
34783;SDS011;20998;51.388;7.032;2023-06-04T13:09:13;4.32;;;2.03;;
34783;SDS011;20998;51.388;7.032;2023-06-04T13:11:40;3.53;;;1.38;;
34783;SDS011;20998;51.388;7.032;2023-06-04T13:14:07;2.28;;;1.65;;
34783;SDS011;20998;51.388;7.032;2023-06-04T13:16:34;4.20;;;1.80;;
34783;SDS011;20998;51.388;7.032;2023-06-04T13:19:00;3.92;;;1.88;;
34783;SDS011;20998;51.388;7.032;2023-06-04T13:21:26;2.05;;;1.52;;
34783;SDS011;20998;51.388;7.032;2023-06-04T13:23:52;7.60;;;1.70;;
34783;SDS011;20998;51.388;7.032;2023-06-04T13:26:19;2.00;;;1.40;;
34783;SDS011;20998;51.388;7.032;2023-06-04T13:28:46;2.58;;;1.63;;
34783;SDS011;20998;51.388;7.032;2023-06-04T13:31:12;6.40;;;1.65;;
34783;SDS011;20998;51.388;7.032;2023-06-04T13:33:38;2.53;;;1.55;;
34783;SDS011;20998;51.388;7.032;2023-06-04T13:36:05;11.48;;;3.10;;
34783;SDS011;20998;51.388;7.032;2023-06-04T13:38:34;6.63;;;1.88;;
34783;SDS011;20998;51.388;7.032;2023-06-04T13:40:59;2.35;;;1.60;;
34783;SDS011;20998;51.388;7.032;2023-06-04T13:43:25;2.00;;;1.60;;
34783;SDS011;20998;51.388;7.032;2023-06-04T13:45:51;3.72;;;1.63;;
34783;SDS011;20998;51.388;7.032;2023-06-04T13:48:18;3.55;;;1.75;;
34783;SDS011;20998;51.388;7.032;2023-06-04T13:50:44;2.70;;;1.50;;
34783;SDS011;20998;51.388;7.032;2023-06-04T13:53:10;8.23;;;1.55;;
34783;SDS011;20998;51.388;7.032;2023-06-04T13:55:38;2.53;;;1.45;;
34783;SDS011;20998;51.388;7.032;2023-06-04T13:58:04;1.52;;;1.38;;
34783;SDS011;20998;51.388;7.032;2023-06-04T14:00:30;1.65;;;1.30;;
34783;SDS011;20998;51.388;7.032;2023-06-04T14:02:56;3.80;;;1.70;;
34783;SDS011;20998;51.388;7.032;2023-06-04T14:05:24;1.92;;;1.40;;
34783;SDS011;20998;51.388;7.032;2023-06-04T14:07:50;2.40;;;1.77;;
34783;SDS011;20998;51.388;7.032;2023-06-04T14:10:16;2.03;;;1.58;;
34783;SDS011;20998;51.388;7.032;2023-06-04T14:12:41;3.40;;;1.50;;
34783;SDS011;20998;51.388;7.032;2023-06-04T14:15:09;2.42;;;1.38;;
34783;SDS011;20998;51.388;7.032;2023-06-04T14:17:35;1.75;;;1.50;;
34783;SDS011;20998;51.388;7.032;2023-06-04T14:20:02;3.20;;;1.83;;
34783;SDS011;20998;51.388;7.032;2023-06-04T14:22:34;7.10;;;1.50;;
34783;SDS011;20998;51.388;7.032;2023-06-04T14:25:02;3.53;;;1.52;;
34783;SDS011;20998;51.388;7.032;2023-06-04T14:27:32;5.15;;;1.33;;
34783;SDS011;20998;51.388;7.032;2023-06-04T14:29:58;2.78;;;1.63;;
34783;SDS011;20998;51.388;7.032;2023-06-04T14:32:24;1.63;;;1.25;;
34783;SDS011;20998;51.388;7.032;2023-06-04T14:34:50;3.40;;;1.60;;
34783;SDS011;20998;51.388;7.032;2023-06-04T14:37:16;2.00;;;1.48;;
34783;SDS011;20998;51.388;7.032;2023-06-04T14:39:42;2.70;;;1.60;;
34783;SDS011;20998;51.388;7.032;2023-06-04T14:42:07;3.70;;;1.70;;
34783;SDS011;20998;51.388;7.032;2023-06-04T14:44:33;1.67;;;1.25;;
34783;SDS011;20998;51.388;7.032;2023-06-04T14:46:59;1.40;;;1.30;;
34783;SDS011;20998;51.388;7.032;2023-06-04T14:49:25;7.72;;;1.83;;
34783;SDS011;20998;51.388;7.032;2023-06-04T14:51:50;2.50;;;1.33;;